Time;durP1;ratioP1;P1;durP2;ratioP2;P2;SDS_P1;SDS_P2;PMS_P1;PMS_P2;Temp;Humidity;BMP_temperature;BMP_pressure;BME280_temperature;BME280_humidity;BME280_pressure;Samples;Min_cycle;Max_cycle;Signal;HPM_P1;HPM_P2
2021/07/20 00:00:24;;;;;;;;;10.50;9.25;;;;;24.01;51.05;101609.41;4995635;28;47138;-90
2021/07/20 00:02:57;;;;;;;;;11.25;10.75;;;;;23.97;50.69;101597.31;5003013;28;45340;-89
2021/07/20 00:05:25;;;;;;;;;13.33;12.00;;;;;23.99;51.37;101605.16;5018847;28;45446;-89
2021/07/20 00:07:58;;;;;;;;;12.00;11.00;;;;;23.92;51.14;101599.50;5037029;28;45395;-89
2021/07/20 00:10:37;;;;;;;;;10.67;9.33;;;;;23.93;51.46;101609.16;5036090;28;46926;-89
2021/07/20 00:13:05;;;;;;;;;12.33;12.00;;;;;23.92;51.29;101606.63;5032372;28;46209;-89
2021/07/20 00:15:31;;;;;;;;;13.00;10.50;;;;;23.86;51.39;101603.50;5033248;28;45268;-89
2021/07/20 00:17:58;;;;;;;;;12.67;12.33;;;;;23.86;51.81;101602.63;5023245;28;45518;-89
2021/07/20 00:20:27;;;;;;;;;12.00;11.67;;;;;23.83;52.12;101605.56;4998811;28;47295;-89
2021/07/20 00:22:54;;;;;;;;;12.67;12.33;;;;;23.77;52.01;101593.59;4998765;28;45373;-91
2021/07/20 00:25:20;;;;;;;;;13.67;10.33;;;;;23.75;51.79;101600.84;5025478;28;45297;-90
2021/07/20 00:27:45;;;;;;;;;10.33;10.33;;;;;23.71;51.81;101594.94;5031000;28;45376;-89
2021/07/20 00:30:13;;;;;;;;;16.33;14.33;;;;;23.69;51.88;101593.34;5035029;28;47246;-89
2021/07/20 00:32:39;;;;;;;;;13.33;11.33;;;;;23.69;52.40;101590.69;5018554;28;45455;-90
2021/07/20 00:35:06;;;;;;;;;12.67;11.33;;;;;23.65;52.14;101592.72;5030907;28;45409;-89
2021/07/20 00:37:32;;;;;;;;;16.33;13.00;;;;;23.62;52.12;101585.03;5018782;28;45579;-89
2021/07/20 00:39:57;;;;;;;;;11.67;11.67;;;;;23.60;52.39;101582.47;5036345;28;46184;-90
2021/07/20 00:42:23;;;;;;;;;10.33;10.33;;;;;23.57;52.34;101593.34;5018292;28;45444;-89
2021/07/20 00:44:48;;;;;;;;;11.67;11.67;;;;;23.56;52.09;101588.16;5018480;28;45365;-89
2021/07/20 00:47:14;;;;;;;;;11.00;11.00;;;;;23.52;52.71;101592.00;5027977;28;45479;-90
2021/07/20 00:49:40;;;;;;;;;12.67;12.00;;;;;23.49;52.78;101595.75;5035485;28;45536;-89
2021/07/20 00:52:06;;;;;;;;;11.67;9.67;;;;;23.45;53.05;101588.97;5018306;28;45353;-89
2021/07/20 00:54:31;;;;;;;;;11.67;11.67;;;;;23.40;52.88;101581.38;5036183;28;45957;-89
2021/07/20 00:56:58;;;;;;;;;13.00;12.00;;;;;23.41;52.77;101584.91;5030205;28;46110;-89
2021/07/20 00:59:23;;;;;;;;;16.25;14.50;;;;;23.38;52.49;101585.97;5030787;28;47384;-90
2021/07/20 01:01:49;;;;;;;;;13.25;13.25;;;;;23.37;52.86;101591.41;4998404;28;45374;-89
2021/07/20 01:04:17;;;;;;;;;13.75;11.50;;;;;23.32;53.27;101594.38;4998586;28;45463;-90
2021/07/20 01:06:43;;;;;;;;;13.75;13.50;;;;;23.26;53.15;101576.25;4996581;28;45411;-89
2021/07/20 01:09:09;;;;;;;;;11.33;11.33;;;;;23.26;53.11;101594.84;5011393;28;47666;-90
2021/07/20 01:11:35;;;;;;;;;14.00;12.00;;;;;23.20;53.05;101582.88;5017645;28;45731;-90
2021/07/20 01:14:05;;;;;;;;;15.00;13.00;;;;;23.19;52.67;101589.16;5038279;28;45289;-89
2021/07/20 01:16:33;;;;;;;;;11.00;10.00;;;;;23.18;53.25;101592.75;5033168;28;45482;-89
2021/07/20 01:19:01;;;;;;;;;15.00;12.00;;;;;23.15;53.42;101590.34;5001421;28;47672;-89
2021/07/20 01:21:31;;;;;;;;;11.75;10.50;;;;;23.11;53.32;101588.91;5017095;28;45486;-90
2021/07/20 01:23:57;;;;;;;;;11.33;11.33;;;;;23.04;53.11;101589.38;5018414;28;45361;-89
2021/07/20 01:26:23;;;;;;;;;12.75;12.75;;;;;23.02;53.31;101587.78;5005175;28;45388;-89
2021/07/20 01:28:50;;;;;;;;;13.00;13.00;;;;;22.97;53.64;101585.50;5019317;28;45337;-90
2021/07/20 01:31:19;;;;;;;;;11.00;11.00;;;;;22.96;53.85;101583.81;5007113;28;45792;-89
2021/07/20 01:33:51;;;;;;;;;15.25;13.75;;;;;22.92;53.37;101588.47;5021256;28;45417;-90
2021/07/20 01:36:17;;;;;;;;;14.25;12.75;;;;;22.89;53.99;101586.06;5039495;28;45341;-89
2021/07/20 01:38:44;;;;;;;;;12.00;12.00;;;;;22.86;53.38;101593.41;5037853;28;47123;-89
2021/07/20 01:41:15;;;;;;;;;13.33;12.00;;;;;22.85;53.82;101586.44;5034619;28;45566;-89
2021/07/20 01:43:44;;;;;;;;;14.00;13.33;;;;;22.80;54.21;101594.72;5039174;28;45381;-89
2021/07/20 01:46:11;;;;;;;;;13.00;12.33;;;;;22.77;54.24;101600.25;5021700;28;45566;-90
2021/07/20 01:48:41;;;;;;;;;14.00;13.00;;;;;22.73;53.98;101594.31;5021018;28;47078;-89
2021/07/20 01:51:07;;;;;;;;;15.00;13.50;;;;;22.72;54.81;101603.25;5039025;28;45333;-89
2021/07/20 01:53:33;;;;;;;;;18.00;13.00;;;;;22.68;54.01;101599.97;5030767;28;45571;-90
2021/07/20 01:56:00;;;;;;;;;13.00;12.67;;;;;22.66;54.00;101601.03;5039079;28;45387;-89
2021/07/20 01:58:26;;;;;;;;;12.00;12.00;;;;;22.61;54.62;101597.88;5036941;28;47450;-89
2021/07/20 02:00:53;;;;;;;;;15.33;12.67;;;;;22.58;54.68;101595.47;5038670;28;45352;-90
2021/07/20 02:08:46;;;;;;;;;14.00;14.00;;;;;22.48;55.02;101596.09;5038487;28;45842;-89
2021/07/20 02:11:18;;;;;;;;;13.75;12.50;;;;;22.46;54.63;101602.47;5020391;28;45408;-90
2021/07/20 02:13:51;;;;;;;;;16.00;14.00;;;;;22.43;55.00;101598.25;5028905;28;45444;-90
2021/07/20 02:16:19;;;;;;;;;11.33;11.33;;;;;22.40;54.73;101601.13;5018792;28;44651;-89
2021/07/20 02:18:48;;;;;;;;;13.50;12.50;;;;;22.36;55.28;101597.00;4997278;28;48544;-89
2021/07/20 02:21:14;;;;;;;;;16.00;15.00;;;;;22.36;55.19;101597.84;4997377;28;45298;-90
2021/07/20 02:23:41;;;;;;;;;12.33;12.33;;;;;22.33;55.01;101600.72;4998602;28;45350;-90
2021/07/20 02:26:09;;;;;;;;;13.75;13.75;;;;;22.30;55.19;101606.25;5018731;28;45300;-89
2021/07/20 02:28:36;;;;;;;;;15.00;13.33;;;;;22.26;55.00;101599.50;5036667;28;45569;-89
2021/07/20 02:31:04;;;;;;;;;14.33;14.00;;;;;22.25;55.34;101603.06;5028579;28;45392;-89
2021/07/20 02:33:30;;;;;;;;;15.67;15.00;;;;;22.20;55.09;101594.59;5000530;28;45345;-89
2021/07/20 02:35:58;;;;;;;;;13.67;12.67;;;;;22.19;55.29;101591.13;5025736;28;45512;-89
2021/07/20 02:38:24;;;;;;;;;13.33;12.67;;;;;22.18;55.42;101589.44;5020130;28;47448;-89
2021/07/20 02:40:50;;;;;;;;;17.00;14.00;;;;;22.16;55.23;101596.63;5020296;28;46076;-90
2021/07/20 02:43:19;;;;;;;;;15.33;14.00;;;;;22.14;55.59;101591.44;5036472;28;45400;-88
2021/07/20 02:45:46;;;;;;;;;13.50;13.50;;;;;22.12;55.91;101595.19;5016565;28;45630;-89
2021/07/20 02:48:12;;;;;;;;;15.00;14.00;;;;;22.06;55.67;101590.31;4997169;28;46740;-89
2021/07/20 02:50:39;;;;;;;;;17.25;15.00;;;;;22.06;56.04;101588.50;4998341;28;45296;-89
2021/07/20 02:53:06;;;;;;;;;15.75;14.25;;;;;22.02;55.31;101592.31;4998438;28;45336;-89
2021/07/20 02:55:33;;;;;;;;;15.67;14.00;;;;;22.00;55.12;101592.44;4997130;28;45589;-89
2021/07/20 02:58:00;;;;;;;;;16.00;14.67;;;;;21.97;55.76;101597.97;5031687;28;45659;-90
2021/07/20 03:00:27;;;;;;;;;14.67;13.33;;;;;21.93;55.62;101588.53;5036519;28;45364;-89
2021/07/20 03:02:54;;;;;;;;;14.75;13.75;;;;;21.91;55.95;101601.06;5036441;28;45380;-89
2021/07/20 03:05:19;;;;;;;;;14.25;13.75;;;;;21.88;55.75;101601.25;5036625;28;45534;-90
2021/07/20 03:07:57;;;;;;;;;14.00;13.00;;;;;21.86;56.02;101592.59;5030118;28;46294;-89
2021/07/20 03:10:27;;;;;;;;;13.67;13.00;;;;;21.83;55.64;101598.94;5036211;28;45399;-89
2021/07/20 03:12:55;;;;;;;;;15.50;14.00;;;;;21.79;55.69;101597.47;5006044;28;45289;-89
2021/07/20 03:15:21;;;;;;;;;14.25;14.25;;;;;21.76;56.41;101597.69;5017982;28;45284;-90
2021/07/20 03:17:47;;;;;;;;;13.50;12.50;;;;;21.73;56.11;101590.81;5017381;28;47000;-89
2021/07/20 03:20:15;;;;;;;;;15.00;14.50;;;;;21.73;56.43;101592.59;5036285;28;45368;-88
2021/07/20 03:22:42;;;;;;;;;13.00;12.00;;;;;21.68;55.90;101587.59;5037686;28;45287;-90
2021/07/20 03:25:10;;;;;;;;;14.00;14.00;;;;;21.66;56.07;101589.47;5019805;28;45455;-89
2021/07/20 03:27:39;;;;;;;;;14.25;14.25;;;;;21.62;55.93;101590.69;5037156;28;45445;-89
2021/07/20 03:30:08;;;;;;;;;14.75;12.25;;;;;21.60;55.94;101592.56;4987072;28;45697;-88
2021/07/20 03:32:34;;;;;;;;;15.50;14.00;;;;;21.59;56.39;101593.53;5016373;28;44865;-89
2021/07/20 03:35:01;;;;;;;;;13.50;13.50;;;;;21.57;56.28;101603.38;5015879;28;45542;-89
2021/07/20 03:37:27;;;;;;;;;13.00;13.00;;;;;21.54;56.41;101609.75;5017431;28;46201;-89
2021/07/20 03:39:53;;;;;;;;;15.50;15.50;;;;;21.52;56.33;101605.50;5023647;28;45322;-89
2021/07/20 03:42:21;;;;;;;;;13.75;13.75;;;;;21.47;56.12;101600.50;5003252;28;45297;-89
2021/07/20 03:44:48;;;;;;;;;16.00;13.75;;;;;21.47;56.52;101611.09;4997616;28;45361;-89
2021/07/20 03:47:17;;;;;;;;;13.25;13.00;;;;;21.43;56.78;101604.34;4979619;28;47324;-90
2021/07/20 03:49:43;;;;;;;;;15.00;14.00;;;;;21.40;56.59;101597.47;5001652;28;45337;-89
2021/07/20 03:52:09;;;;;;;;;14.75;14.75;;;;;21.38;56.41;101601.16;5016905;28;45462;-89
2021/07/20 03:54:35;;;;;;;;;14.75;14.50;;;;;21.35;56.69;101596.91;5017145;28;45553;-90
2021/07/20 03:57:02;;;;;;;;;14.00;12.50;;;;;21.34;56.69;101595.22;5016871;28;45700;-89
2021/07/20 03:59:32;;;;;;;;;14.50;12.50;;;;;21.34;56.54;101605.81;5015366;28;45534;-89
2021/07/20 04:01:59;;;;;;;;;14.25;13.00;;;;;21.29;56.84;101605.28;5010663;28;45302;-89
2021/07/20 04:04:26;;;;;;;;;16.67;14.33;;;;;21.28;57.17;101608.88;5037222;28;45519;-88
2021/07/20 04:06:54;;;;;;;;;13.75;13.75;;;;;21.27;57.20;101609.81;5033769;28;47323;-89
2021/07/20 04:09:21;;;;;;;;;16.75;16.00;;;;;21.22;56.83;101613.63;5036982;28;45391;-89
2021/07/20 04:11:46;;;;;;;;;18.50;16.50;;;;;21.21;56.66;101617.22;5032464;28;45357;-89
2021/07/20 04:14:13;;;;;;;;;12.25;12.25;;;;;21.19;56.95;101619.13;5017066;28;45462;-89
2021/07/20 04:16:42;;;;;;;;;14.00;13.67;;;;;21.18;57.17;101621.88;5016688;28;45510;-89
2021/07/20 04:19:09;;;;;;;;;13.00;12.00;;;;;21.17;56.99;101622.84;5015660;28;45341;-89
2021/07/20 04:21:36;;;;;;;;;14.67;13.67;;;;;21.12;57.45;101625.78;4997409;28;45464;-90
2021/07/20 04:24:01;;;;;;;;;15.00;14.00;;;;;21.11;56.97;101628.53;5018173;28;45362;-89
2021/07/20 04:26:28;;;;;;;;;15.33;15.33;;;;;21.11;56.99;101629.41;5036272;28;46395;-90
2021/07/20 04:28:56;;;;;;;;;16.25;14.50;;;;;21.07;57.24;101634.03;5028969;28;45348;-89
2021/07/20 04:31:24;;;;;;;;;17.50;13.75;;;;;21.06;57.15;101629.69;5016766;28;45702;-89
2021/07/20 04:33:50;;;;;;;;;16.75;14.75;;;;;21.05;57.45;101632.44;5027634;28;45377;-89
2021/07/20 04:36:16;;;;;;;;;16.50;15.75;;;;;21.04;57.61;101630.72;5036283;28;46494;-89
2021/07/20 04:38:42;;;;;;;;;16.25;16.25;;;;;21.01;57.43;101634.44;5036194;28;45395;-89
2021/07/20 04:41:08;;;;;;;;;11.75;11.50;;;;;20.99;57.61;101636.34;5036625;28;45351;-89
2021/07/20 04:43:35;;;;;;;;;16.00;14.25;;;;;20.97;57.67;101632.97;4996070;28;45252;-89
2021/07/20 04:46:02;;;;;;;;;10.75;10.50;;;;;20.98;57.75;101625.84;4999335;28;47094;-89
2021/07/20 04:48:27;;;;;;;;;14.00;14.00;;;;;20.97;57.89;101635.59;5018684;28;45345;-89
2021/07/20 04:50:55;;;;;;;;;17.25;15.25;;;;;20.97;57.75;101635.59;5020085;28;45265;-89
2021/07/20 04:53:21;;;;;;;;;15.50;14.00;;;;;20.98;57.71;101634.66;5014263;28;45410;-89
2021/07/20 04:55:52;;;;;;;;;14.00;13.00;;;;;20.96;58.00;101629.44;4999849;28;46305;-89
2021/07/20 04:58:18;;;;;;;;;16.75;15.75;;;;;20.94;57.91;101628.72;5025345;28;45372;-89
2021/07/20 05:00:49;;;;;;;;;15.25;13.50;;;;;20.99;57.64;101638.13;5039709;28;45340;-89
2021/07/20 05:03:17;;;;;;;;;13.25;13.25;;;;;20.95;57.62;101632.19;5039916;28;45521;-88
2021/07/20 05:05:43;;;;;;;;;16.00;14.00;;;;;20.96;58.01;101639.19;5029139;28;47121;-89
2021/07/20 05:08:13;;;;;;;;;13.50;13.50;;;;;20.95;57.86;101642.78;5039672;28;45430;-88
2021/07/20 05:10:40;;;;;;;;;15.75;13.75;;;;;20.98;57.53;101647.88;5039685;28;45268;-89
2021/07/20 05:13:08;;;;;;;;;18.00;16.25;;;;;21.00;58.46;101653.03;5023814;28;45550;-89
2021/07/20 05:15:34;;;;;;;;;15.00;13.25;;;;;20.98;58.52;101639.09;5017222;28;45353;-89
2021/07/20 05:18:00;;;;;;;;;14.50;13.50;;;;;21.00;57.92;101639.81;5019337;28;45432;-89
2021/07/20 05:20:26;;;;;;;;;16.25;15.25;;;;;21.01;57.54;101642.38;5018213;28;45424;-88
2021/07/20 05:22:52;;;;;;;;;16.75;16.00;;;;;21.05;57.83;101645.66;5001903;28;45626;-89
2021/07/20 05:25:18;;;;;;;;;16.25;15.50;;;;;21.06;57.87;101640.25;4999246;28;47173;-89
2021/07/20 05:27:49;;;;;;;;;14.00;14.00;;;;;21.07;57.66;101647.25;5034500;28;45334;-89
2021/07/20 05:30:16;;;;;;;;;17.00;16.75;;;;;21.08;57.82;101641.03;5019237;28;45973;-89
2021/07/20 05:32:45;;;;;;;;;16.50;16.50;;;;;21.12;58.11;101640.81;5019213;28;45706;-89
2021/07/20 05:35:15;;;;;;;;;15.75;15.75;;;;;21.15;57.66;101656.50;5019306;28;45780;-89
2021/07/20 05:37:42;;;;;;;;;18.00;16.50;;;;;21.13;57.33;101648.66;5028519;28;45457;-89
2021/07/20 05:40:14;;;;;;;;;12.50;12.25;;;;;21.17;57.88;101650.16;5039225;28;45291;-89
2021/07/20 05:42:41;;;;;;;;;18.00;17.00;;;;;21.18;57.23;101650.97;5039451;28;45336;-89
2021/07/20 05:45:08;;;;;;;;;14.00;14.00;;;;;21.22;57.79;101653.34;5020956;28;45490;-89
2021/07/20 05:47:36;;;;;;;;;16.67;16.67;;;;;21.23;57.55;101651.53;5016816;28;45295;-89
2021/07/20 05:50:05;;;;;;;;;14.00;14.00;;;;;21.25;57.84;101659.38;5015291;28;46969;-89
2021/07/20 05:52:31;;;;;;;;;18.67;17.67;;;;;21.26;57.85;101659.28;5019231;28;45392;-88
2021/07/20 05:54:57;;;;;;;;;20.67;19.00;;;;;21.29;57.53;101660.88;5018785;28;45272;-89
2021/07/20 05:57:25;;;;;;;;;15.33;15.33;;;;;21.31;57.29;101665.09;5016584;28;45373;-89
2021/07/20 05:59:52;;;;;;;;;21.25;17.50;;;;;21.34;57.10;101666.69;5036357;28;45222;-89
2021/07/20 06:02:18;;;;;;;;;21.75;18.25;;;;;21.36;57.22;101667.44;5004131;28;45544;-91
2021/07/20 06:04:44;;;;;;;;;17.25;17.25;;;;;21.38;57.62;101665.53;5007715;28;48377;-89
2021/07/20 06:07:12;;;;;;;;;19.75;18.25;;;;;21.43;57.22;101667.88;5006640;28;45514;-89
2021/07/20 06:09:38;;;;;;;;;19.00;17.25;;;;;21.45;57.02;101668.63;4997546;28;45519;-90
2021/07/20 06:12:08;;;;;;;;;17.00;17.00;;;;;21.49;57.08;101668.28;5011015;28;45472;-90
2021/07/20 06:14:35;;;;;;;;;25.00;23.00;;;;;21.55;57.16;101671.47;5011181;28;46271;-89
2021/07/20 06:17:01;;;;;;;;;19.00;16.50;;;;;21.57;56.84;101674.88;5017103;28;45436;-89
2021/07/20 06:19:26;;;;;;;;;25.25;21.00;;;;;21.60;56.61;101677.31;5002467;28;45623;-89
2021/07/20 06:21:53;;;;;;;;;26.00;22.25;;;;;21.65;56.89;101675.19;5000407;28;45478;-90
2021/07/20 06:24:19;;;;;;;;;24.00;21.50;;;;;21.65;56.81;101671.72;4996414;28;47264;-88
2021/07/20 06:26:45;;;;;;;;;28.50;23.75;;;;;21.67;56.75;101667.16;4995765;28;45860;-89
2021/07/20 06:29:12;;;;;;;;;24.25;24.00;;;;;21.68;56.56;101671.50;4988857;28;45322;-90
2021/07/20 06:31:42;;;;;;;;;25.00;21.25;;;;;21.70;55.69;101673.13;5016223;28;45417;-89
2021/07/20 06:34:08;;;;;;;;;25.50;22.75;;;;;21.72;55.95;101679.13;5007935;28;45410;-89
2021/07/20 06:36:35;;;;;;;;;31.75;28.25;;;;;21.77;55.22;101684.16;5002628;28;44720;-90
2021/07/20 06:39:03;;;;;;;;;26.25;23.75;;;;;21.75;54.89;101681.59;5015724;28;45407;-90
2021/07/20 06:41:33;;;;;;;;;24.00;21.50;;;;;21.76;54.22;101677.97;5021092;28;45388;-90
2021/07/20 06:43:59;;;;;;;;;36.25;30.00;;;;;21.81;54.61;101675.03;5008087;28;45309;-90
2021/07/20 06:46:26;;;;;;;;;31.75;27.75;;;;;21.83;54.87;101674.91;5018050;28;45403;-89
2021/07/20 06:48:52;;;;;;;;;32.25;29.75;;;;;21.87;54.22;101679.06;5004864;28;45386;-89
2021/07/20 06:51:17;;;;;;;;;30.00;29.00;;;;;21.91;54.41;101692.94;4998997;28;45423;-90
2021/07/20 06:53:43;;;;;;;;;35.25;30.00;;;;;21.92;54.18;101687.53;5002549;28;46232;-90
2021/07/20 06:56:16;;;;;;;;;31.75;30.00;;;;;21.93;54.47;101680.44;4980522;28;45537;-90
2021/07/20 06:58:42;;;;;;;;;28.25;26.75;;;;;21.93;54.41;101683.91;4998191;28;45367;-90
2021/07/20 07:01:10;;;;;;;;;28.00;27.75;;;;;21.95;54.22;101686.47;5008035;28;45447;-90
2021/07/20 07:03:51;;;;;;;;;31.00;28.25;;;;;21.99;53.02;101691.44;5015872;28;48463;-90
2021/07/20 07:06:20;;;;;;;;;34.25;29.00;;;;;22.00;53.29;101690.47;5009071;28;45476;-90
2021/07/20 07:08:47;;;;;;;;;27.25;26.50;;;;;22.02;53.49;101691.25;4997217;28;45395;-90
2021/07/20 07:11:14;;;;;;;;;30.75;27.75;;;;;22.08;53.64;101686.47;5010572;28;45426;-90
2021/07/20 07:13:40;;;;;;;;;30.75;29.00;;;;;22.08;53.47;101682.00;4997237;28;46305;-90
2021/07/20 07:16:06;;;;;;;;;30.25;28.00;;;;;22.12;53.38;101686.13;4995135;28;45577;-90
2021/07/20 07:18:33;;;;;;;;;32.50;28.50;;;;;22.15;52.95;101693.03;5029747;28;45479;-90
2021/07/20 07:21:00;;;;;;;;;39.25;31.75;;;;;22.19;52.50;101694.50;4996328;28;45011;-90
2021/07/20 07:23:27;;;;;;;;;28.25;26.25;;;;;22.24;53.02;101699.47;4997413;28;47133;-90
2021/07/20 07:25:58;;;;;;;;;34.25;30.50;;;;;22.27;52.00;101701.91;4997509;28;45372;-90
2021/07/20 07:28:24;;;;;;;;;34.50;29.25;;;;;22.31;52.39;101698.06;4996658;28;45514;-90
2021/07/20 07:30:51;;;;;;;;;33.75;28.50;;;;;22.34;52.36;101695.22;4979746;28;45663;-90
2021/07/20 07:33:17;;;;;;;;;29.50;27.50;;;;;22.41;52.13;101703.59;4986092;28;48370;-90
2021/07/20 07:35:45;;;;;;;;;33.75;30.75;;;;;22.48;52.47;101701.31;5009657;28;45408;-89
2021/07/20 07:38:12;;;;;;;;;35.00;31.75;;;;;22.52;52.54;101708.09;4995476;28;45322;-90
2021/07/20 07:40:38;;;;;;;;;30.00;29.00;;;;;22.58;51.58;101704.22;4997755;28;45439;-89
2021/07/20 07:43:05;;;;;;;;;32.50;28.50;;;;;22.62;51.90;101700.34;5020185;28;48367;-90
2021/07/20 07:45:33;;;;;;;;;26.75;26.50;;;;;22.68;52.63;101700.78;5013856;28;45464;-90
2021/07/20 07:48:00;;;;;;;;;29.50;27.25;;;;;22.75;52.02;101701.19;5014723;28;45305;-90
2021/07/20 07:50:26;;;;;;;;;31.00;28.25;;;;;22.81;52.05;101702.53;5016770;28;45270;-90
2021/07/20 07:52:54;;;;;;;;;32.25;30.00;;;;;22.86;50.75;101697.72;4992726;28;47666;-89
2021/07/20 07:55:22;;;;;;;;;31.50;29.00;;;;;22.93;50.96;101699.00;5012664;28;45539;-89
2021/07/20 07:57:48;;;;;;;;;28.75;26.75;;;;;23.01;51.61;101701.06;4994486;28;46138;-89
2021/07/20 08:00:16;;;;;;;;;29.00;25.75;;;;;23.13;51.09;101706.44;5002284;28;45463;-89
2021/07/20 08:02:46;;;;;;;;;27.50;27.25;;;;;23.21;51.02;101709.34;5013190;28;46513;-89
2021/07/20 08:05:13;;;;;;;;;34.25;29.75;;;;;23.27;50.95;101700.94;5010741;28;45356;-90
2021/07/20 08:07:41;;;;;;;;;32.75;27.75;;;;;23.33;50.84;101702.31;5003018;28;45403;-90
2021/07/20 08:10:09;;;;;;;;;24.75;24.50;;;;;23.37;50.48;101701.09;5010335;28;45355;-90
2021/07/20 08:12:37;;;;;;;;;34.25;30.25;;;;;23.42;50.19;101703.44;5015675;28;46368;-89
2021/07/20 08:15:03;;;;;;;;;29.75;26.75;;;;;23.51;50.21;101701.88;5015563;28;45533;-89
2021/07/20 08:17:29;;;;;;;;;30.00;27.50;;;;;23.60;49.11;101707.34;4997463;28;45374;-90
2021/07/20 08:19:58;;;;;;;;;28.25;26.50;;;;;23.66;49.63;101699.84;5011953;28;45218;-89
2021/07/20 08:22:25;;;;;;;;;25.25;25.25;;;;;23.73;49.16;101701.06;5015104;28;45497;-90
2021/07/20 08:25:07;;;;;;;;;26.50;25.75;;;;;23.81;49.05;101704.00;4999456;28;45431;-89
2021/07/20 08:27:40;;;;;;;;;29.25;28.50;;;;;23.91;49.46;101700.59;5024222;28;45524;-89
2021/07/20 08:30:07;;;;;;;;;32.50;26.25;;;;;23.98;49.68;101702.66;5015061;28;45238;-90
2021/07/20 08:32:41;;;;;;;;;28.75;27.75;;;;;24.03;49.61;101700.50;5009972;28;46889;-90
2021/07/20 08:35:18;;;;;;;;;28.25;24.00;;;;;24.11;49.68;101701.75;5009605;28;46217;-90
2021/07/20 08:37:46;;;;;;;;;27.00;24.50;;;;;24.19;49.78;101703.78;4987070;28;45653;-89
2021/07/20 08:40:50;;;;;;;;;30.00;26.50;;;;;24.27;50.02;101704.03;4997496;28;45539;-89
2021/07/20 08:43:52;;;;;;;;;27.00;25.00;;;;;24.37;49.68;101704.13;5016274;28;46131;-89
2021/07/20 08:46:27;;;;;;;;;32.25;24.00;;;;;24.48;48.39;101703.28;4995986;28;45232;-90
2021/07/20 08:48:58;;;;;;;;;28.00;24.50;;;;;24.57;47.58;101701.69;4980670;28;45755;-89
2021/07/20 08:51:34;;;;;;;;;24.25;24.25;;;;;24.66;47.66;101708.91;5016218;28;45281;-89
2021/07/20 08:54:08;;;;;;;;;24.25;23.25;;;;;24.75;47.29;101702.84;5015959;28;45466;-89
2021/07/20 08:56:40;;;;;;;;;27.50;26.75;;;;;24.85;47.17;101702.13;5014638;28;45269;-89
2021/07/20 08:59:15;;;;;;;;;23.25;22.00;;;;;24.94;47.26;101701.38;5013399;28;45485;-90
2021/07/20 09:01:49;;;;;;;;;21.75;20.50;;;;;25.04;47.63;101706.78;5031230;28;45353;-89
2021/07/20 09:04:29;;;;;;;;;26.00;24.25;;;;;25.14;47.67;101704.22;4997363;28;48337;-90
2021/07/20 09:07:03;;;;;;;;;21.75;21.75;;;;;25.20;47.96;101701.88;5014398;28;45380;-89
2021/07/20 09:09:39;;;;;;;;;21.75;20.25;;;;;25.30;47.96;101703.75;5037331;28;46829;-90
2021/07/20 09:12:12;;;;;;;;;23.25;22.50;;;;;25.40;47.14;101715.31;5011267;28;45283;-89
2021/07/20 09:14:46;;;;;;;;;24.75;22.00;;;;;25.52;47.41;101715.25;5025771;28;47730;-90
2021/07/20 09:17:30;;;;;;;;;19.50;18.75;;;;;25.63;46.84;101711.72;5011490;28;45831;-88
2021/07/20 09:20:01;;;;;;;;;19.50;19.50;;;;;25.71;47.02;101704.78;5021249;28;45458;-89
2021/07/20 09:22:35;;;;;;;;;26.00;23.50;;;;;25.84;45.85;101707.22;5014645;28;45461;-89
2021/07/20 09:25:15;;;;;;;;;23.50;21.75;;;;;25.95;47.00;101714.28;5015470;28;45458;-90
2021/07/20 09:27:43;;;;;;;;;20.00;19.25;;;;;26.07;46.29;101720.38;5010879;28;46226;-90
2021/07/20 09:30:17;;;;;;;;;22.25;21.50;;;;;26.17;46.77;101709.75;5002232;28;45335;-90
2021/07/20 09:33:01;;;;;;;;;20.50;18.25;;;;;26.27;46.13;101707.13;4993218;28;45464;-89
2021/07/20 09:35:54;;;;;;;;;26.75;19.75;;;;;26.36;46.47;101703.66;4985154;28;45388;-91
2021/07/20 09:38:28;;;;;;;;;20.75;18.75;;;;;26.47;45.88;101704.53;5019694;28;45516;-91
2021/07/20 09:41:03;;;;;;;;;17.75;17.75;;;;;26.58;45.98;101704.41;5015400;28;45363;-89
2021/07/20 09:43:56;;;;;;;;;18.00;16.75;;;;;26.70;45.65;101704.28;5019409;28;45403;-91
2021/07/20 09:47:10;;;;;;;;;15.33;14.67;;;;;26.83;45.49;101707.53;4996255;28;47179;-89
2021/07/20 09:49:38;;;;;;;;;16.75;16.00;;;;;26.91;45.39;101699.69;5006258;28;45525;-90
2021/07/20 09:52:44;;;;;;;;;19.75;18.25;;;;;27.04;45.29;101696.72;5007089;28;44909;-89
2021/07/20 09:55:16;;;;;;;;;16.00;15.67;;;;;27.16;45.34;101702.78;5001175;28;45644;-90
2021/07/20 09:58:03;;;;;;;;;13.33;13.33;;;;;27.26;44.54;101705.44;5010692;28;47138;-89
2021/07/20 10:00:37;;;;;;;;;16.00;15.00;;;;;27.38;44.18;101710.63;5016369;28;45457;-91
2021/07/20 10:03:21;;;;;;;;;16.00;14.67;;;;;27.49;43.85;101705.13;5013711;28;45539;-90
2021/07/20 10:06:03;;;;;;;;;19.00;16.33;;;;;27.62;43.97;101707.50;5014783;28;45356;-90
2021/07/20 10:08:48;;;;;;;;;18.67;17.33;;;;;27.75;43.16;101701.84;5008228;28;47518;-89
2021/07/20 10:11:16;;;;;;;;;16.50;14.00;;;;;27.87;43.56;101705.19;5014732;28;45549;-89
2021/07/20 10:14:00;;;;;;;;;17.75;17.75;;;;;27.99;43.47;101697.81;4994625;28;45566;-89
2021/07/20 10:16:42;;;;;;;;;14.00;13.75;;;;;28.14;43.48;101698.19;5003441;28;45314;-90
2021/07/20 10:19:10;;;;;;;;;15.33;14.00;;;;;28.22;42.31;101695.59;5017732;28;46474;-88
2021/07/20 10:21:38;;;;;;;;;20.67;14.33;;;;;28.33;41.65;101697.25;5018451;28;45304;-89
2021/07/20 10:24:14;;;;;;;;;15.33;14.67;;;;;28.45;41.05;101694.41;5003052;28;45595;-90
2021/07/20 10:27:04;;;;;;;;;13.67;12.67;;;;;28.55;41.52;101700.50;5016077;28;45411;-90
2021/07/20 10:29:48;;;;;;;;;18.33;17.00;;;;;28.65;41.30;101698.59;5027704;28;47129;-89
2021/07/20 10:32:42;;;;;;;;;15.67;15.67;;;;;28.82;40.88;101688.03;5009817;28;45702;-89
2021/07/20 10:35:14;;;;;;;;;19.00;17.00;;;;;28.95;40.99;101690.38;4989839;28;45540;-90
2021/07/20 10:37:43;;;;;;;;;20.00;17.67;;;;;29.10;41.56;101682.63;5013793;28;45457;-88
2021/07/20 10:40:15;;;;;;;;;16.33;16.00;;;;;29.23;40.73;101681.38;5006361;28;45567;-89
2021/07/20 10:43:00;;;;;;;;;12.33;12.33;;;;;29.39;40.30;101675.31;4993764;28;45116;-88
2021/07/20 10:45:31;;;;;;;;;23.00;17.33;;;;;29.50;40.58;101677.75;5006177;28;45471;-88
2021/07/20 10:48:09;;;;;;;;;17.67;16.00;;;;;29.65;40.36;101671.78;5004226;28;45756;-89
2021/07/20 10:50:48;;;;;;;;;18.75;16.00;;;;;29.80;40.61;101672.03;5012066;28;47107;-89
2021/07/20 10:53:57;;;;;;;;;19.67;17.00;;;;;29.91;40.52;101666.38;5007658;28;45574;-89
2021/07/20 10:56:29;;;;;;;;;18.33;16.33;;;;;30.06;40.39;101671.97;4988575;28;45472;-88
2021/07/20 10:59:12;;;;;;;;;20.00;19.33;;;;;30.18;39.47;101671.72;5010953;28;45602;-88
2021/07/20 11:02:02;;;;;;;;;23.50;20.50;;;;;30.30;39.00;101664.19;5015504;28;48464;-89
2021/07/20 11:04:46;;;;;;;;;16.75;16.75;;;;;30.43;38.52;101669.91;5010043;28;45622;-92
2021/07/20 11:07:16;;;;;;;;;20.00;18.75;;;;;30.53;38.39;101661.72;5006071;28;45707;-89
2021/07/20 11:09:42;;;;;;;;;19.67;18.00;;;;;30.64;38.46;101658.69;5004057;28;45963;-89
2021/07/20 11:12:09;;;;;;;;;20.33;19.67;;;;;30.71;37.84;101661.59;5007838;28;45571;-88
2021/07/20 11:14:45;;;;;;;;;21.75;20.00;;;;;30.82;38.03;101663.09;5011034;28;45631;-89
2021/07/20 11:17:12;;;;;;;;;18.50;18.50;;;;;30.91;38.02;101663.97;4991977;28;45452;-89
2021/07/20 11:19:38;;;;;;;;;16.75;16.75;;;;;31.00;37.48;101656.75;5020487;28;45557;-89
2021/07/20 11:22:04;;;;;;;;;20.75;18.50;;;;;31.13;37.22;101665.13;5015593;28;45790;-89
2021/07/20 11:24:30;;;;;;;;;18.00;16.67;;;;;31.21;37.19;101658.88;5007767;28;45655;-91
2021/07/20 11:27:00;;;;;;;;;19.00;18.00;;;;;31.30;36.81;101660.59;5012509;28;45581;-90